• Join FlightAware (Why Join?)
  • Login
  • US Flag 
07:00PM EDT


 

Airport Tracker/Info


-or-


 

Live Flight TrackerFlight Track Log ✈ AAL532 ✈ 28-Apr-2013 ✈ KORD - KDCA

Flight Track Log - Related Links

Times and Time Zones

All times are in EDT time to prevent confusion due to time zone crossing. See the AAL532 flight status page for this flight to view local times or setup timezone preferences in your user account.

Time Position Orientation Groundspeed Altitude Reporting Facility
EDT Latitude Longitude Course Direction KTS MPH feet Rate Location/Type
11:17PM 41.9500 -87.9167 85° East 172 198 1,700  Level Chicago TRACON
11:18PM 41.9000 -87.8833 154° Southeast 210 242 3,400 1,860 Climbing Chicago TRACON
11:19PM 41.9547 -87.4229 96° East  Level FlightAware Approximate
11:19PM 41.9000 -87.8000 90° East 260 299 5,100  Level Chicago TRACON
11:20PM 41.9427 -87.2644 95° East  Level FlightAware Approximate
11:20PM 41.9008 -87.6433 90° East 277 319 8,300  Level Chicago Center
11:21PM 41.9333 -87.1057 90° East  Level FlightAware Approximate
11:21PM 41.9108 -87.5342 83° East 293 337 10,900  Level Chicago Center
11:22PM 41.9346 -86.9465 85° East  Level FlightAware Approximate
11:22PM 41.9217 -87.4058 83° East 345 397 12,500  Level Chicago Center
11:23PM 41.9317 -87.2675 84° East 365 420 15,200 2,640 Climbing Chicago Center
11:24PM 41.9425 -87.1192 84° East 390 449 17,900 2,820 Climbing Chicago Center
11:25PM 41.9444 -86.9353 89° East 410 472 21,000 2,520 Climbing Chicago Center
11:26PM 41.9258 -86.7758 99° East 430 495 23,100 2,220 Climbing Chicago Center
11:27PM 41.9036 -86.6100 100° East 444 511 25,500 2,100 Climbing Chicago Center
11:29PM 41.8819 -86.4453 100° East 449 517 27,400 1,620 Climbing Chicago Center
11:30PM 41.8611 -86.2747 99° East 458 527 28,900 1,560 Climbing Chicago Center
11:31PM 41.8400 -86.1011 99° East 470 541 30,600 1,620 Climbing Chicago Center
11:32PM 41.8189 -85.9275 99° East 471 542 32,300 1,680 Climbing Chicago Center
11:33PM 41.7967 -85.7544 100° East 471 542 34,000 1,620 Climbing Chicago Center
11:34PM 41.7744 -85.5839 100° East 464 534 35,600 1,320 Climbing Chicago Center
11:35PM 41.7517 -85.4094 100° East 463 533 36,700 660 Climbing Chicago Center
11:36PM 41.7275 -85.2356 100° East 463 533 37,000 120 Climbing Chicago Center
11:37PM 41.7050 -85.0611 100° East 471 542 37,000  Level Chicago Center
11:37PM 41.6956 -84.9969 101° East 460 529 37,000  Level Cleveland Center
11:38PM 41.6625 -84.8250 104° East 465 535 37,000  Level Cleveland Center
11:39PM 41.6036 -84.6683 117° Southeast 470 541 37,000  Level Cleveland Center
11:40PM 41.5633 -84.5697 119° Southeast 479 551 37,000  Level Chicago Center
11:40PM 41.5364 -84.4978 117° Southeast 470 541 37,000  Level Cleveland Center
11:41PM 41.4750 -84.3414 118° Southeast 470 541 37,000  Level Cleveland Center
11:42PM 41.4131 -84.1911 119° Southeast 470 541 37,000  Level Cleveland Center
11:43PM 41.3533 -84.0328 117° Southeast 470 541 37,000  Level Cleveland Center
11:44PM 41.2953 -83.8806 117° Southeast 470 541 37,000  Level Cleveland Center
11:45PM 41.2308 -83.7308 120° Southeast 465 535 37,000  Level Cleveland Center
11:46PM 41.1683 -83.5733 118° Southeast 471 542 37,000  Level Cleveland Center
11:47PM 41.1075 -83.4189 118° Southeast 471 542 37,000  Level Cleveland Center
11:48PM 41.0508 -83.2650 116° Southeast 461 531 37,000  Level Cleveland Center
11:49PM 40.9894 -83.1250 120° Southeast 473 544 37,000  Level Cleveland Center
11:50PM 40.9200 -82.9600 119° Southeast 473 544 37,000  Level Cleveland Center
11:51PM 40.8564 -82.8014 118° Southeast 479 551 37,000  Level Cleveland Center
11:53PM 40.7228 -82.4761 118° Southeast 483 556 37,000  Level Cleveland Center
11:54PM 40.6525 -82.3072 119° Southeast 488 562 37,000  Level Cleveland Center
11:55PM 40.5878 -82.1553 119° Southeast 483 556 37,000  Level Cleveland Center
11:56PM 40.5231 -82.0006 119° Southeast 483 556 37,000  Level Cleveland Center
11:57PM 40.4583 -81.8464 119° Southeast 483 556 37,000  Level Cleveland Center
11:58PM 40.3911 -81.6925 120° Southeast 483 556 37,000  Level Cleveland Center
11:59PM 40.3258 -81.5361 119° Southeast 483 556 37,000  Level Cleveland Center
12:00AM 40.2644 -81.3858 118° Southeast 483 556 37,000  Level Cleveland Center
12:01AM 40.2008 -81.2328 119° Southeast 483 556 37,000  Level Cleveland Center
12:02AM 40.1347 -81.0856 120° Southeast 478 550 37,000  Level Cleveland Center
12:03AM 40.0708 -80.9331 119° Southeast 478 550 37,000  Level Cleveland Center
12:04AM 39.9981 -80.7917 124° Southeast 478 550 37,000  Level Cleveland Center
12:06AM 39.8558 -80.5894 132° Southeast 472 543 37,000  Level Washington Center
12:07AM 39.7953 -80.4394 118° Southeast 472 543 37,000  Level Washington Center
12:08AM 39.7456 -80.2739 111° Southeast 477 549 37,000  Level Washington Center
12:09AM 39.6978 -80.1064 110° East 483 556 37,000  Level Washington Center
12:10AM 39.6519 -79.9417 110° East 488 562 37,000  Level Washington Center
12:11AM 39.6036 -79.7772 111° Southeast 488 562 37,000 -300 Level Washington Center
12:12AM 39.5567 -79.6236 112° Southeast 493 567 36,500 -1,740 Descending Washington Center
12:13AM 39.5058 -79.4567 111° Southeast 498 573 33,600 -3,120 Descending Washington Center
12:14AM 39.4472 -79.2681 112° Southeast 505 581 30,300 -2,580 Descending Washington Center
12:15AM 39.4033 -79.1342 113° Southeast 505 581 28,400 -2,100 Descending Washington Center
12:16AM 39.3500 -78.9572 111° Southeast 498 573 26,100 -2,340 Descending Washington Center
12:17AM 39.3019 -78.8047 112° Southeast 479 551 23,700 -2,400 Descending Washington Center
12:18AM 39.2578 -78.6608 112° Southeast 452 520 21,500 -2,280 Descending Washington Center
12:19AM 39.2156 -78.5225 111° Southeast 425 489 19,300 -2,040 Descending Washington Center
12:20AM 39.1706 -78.3894 114° Southeast 410 472 17,400 -1,560 Descending Washington Center
12:21AM 39.1381 -78.2622 108° East 395 455 16,200 -1,260 Descending Washington Center
12:22AM 39.1075 -78.1408 108° East 373 429 14,900 -1,260 Descending Washington Center
12:23AM 39.0764 -78.0194 108° East 363 418 13,700 -1,260 Descending Washington Center
12:24AM 39.0456 -77.9008 108° East 358 412 12,500 -1,260 Descending Washington Center
12:25AM 39.0183 -77.7903 108° East 332 382 11,300 -1,080 Descending Washington Center
12:26AM 38.9872 -77.6747 109° East 314 361 10,400 -960 Descending Washington Center
12:27AM 38.9667 -77.5833 106° East 283 326 9,600 -900 Descending Potomac TRACON
12:28AM 38.9500 -77.4833 102° East 254 292 8,600 -1,320 Descending Potomac TRACON
12:29AM 39.0000 -77.4000 52° Northeast 279 321 6,900 -1,440 Descending Potomac TRACON
12:30AM 39.0500 -77.3333 46° Northeast 278 320 5,800 -780 Descending Potomac TRACON
12:31AM 39.0500 -77.2667 90° East 200 230 5,400 -720 Descending Potomac TRACON
12:32AM 39.0333 -77.2167 113° Southeast 167 192 4,400 -1,020 Descending Potomac TRACON
12:33AM 39.0000 -77.1833 142° Southeast 161 185 3,400 -900 Descending Potomac TRACON
12:34AM 38.9667 -77.1500 142° Southeast 149 171 2,600 -840 Descending Potomac TRACON
12:35AM 38.9333 -77.1167 142° Southeast 137 158 1,900 -780 Descending Potomac TRACON